Time;durP1;ratioP1;P1;durP2;ratioP2;P2;SDS_P1;SDS_P2;PMS_P1;PMS_P2;Temp;Humidity;BMP_temperature;BMP_pressure;BME280_temperature;BME280_humidity;BME280_pressure;Samples;Min_cycle;Max_cycle;Signal;HPM_P1;HPM_P2
2021/10/03 00:02:14;;;;;;;5.28;3.85;;;;;;;17.00;59.33;102119.13;5005972;28;102998;-53
2021/10/03 00:04:41;;;;;;;4.65;3.83;;;;;;;16.99;59.26;102118.31;5013532;28;107848;-52
2021/10/03 00:07:09;;;;;;;4.85;4.03;;;;;;;16.98;59.69;102111.16;5011772;28;102167;-53
2021/10/03 00:09:36;;;;;;;4.47;3.53;;;;;;;16.99;59.73;102112.81;5003957;28;102611;-52
2021/10/03 00:12:03;;;;;;;4.97;3.80;;;;;;;16.99;59.84;102107.31;5001475;28;104706;-53
2021/10/03 00:14:30;;;;;;;4.90;3.70;;;;;;;17.00;59.73;102114.47;5008559;28;103509;-53
2021/10/03 00:16:57;;;;;;;4.80;4.07;;;;;;;17.01;59.48;102112.53;5005594;27;102177;-53
2021/10/03 00:19:28;;;;;;;5.38;4.15;;;;;;;16.99;59.40;102107.31;5013419;27;101917;-59
2021/10/03 00:21:56;;;;;;;5.43;3.90;;;;;;;16.99;59.82;102110.06;5016159;28;102173;-53
2021/10/03 00:24:23;;;;;;;6.95;4.00;;;;;;;17.00;59.59;102108.13;5007865;28;104139;-52
2021/10/03 00:26:50;;;;;;;4.82;3.65;;;;;;;17.01;59.85;102107.03;5005495;28;102222;-53
2021/10/03 00:29:17;;;;;;;4.53;3.85;;;;;;;17.01;59.71;102098.78;5009468;28;104906;-53
2021/10/03 00:31:43;;;;;;;4.28;3.30;;;;;;;17.00;59.82;102103.47;5016881;28;102249;-53
2021/10/03 00:34:10;;;;;;;3.80;3.40;;;;;;;17.00;59.75;102106.22;5013301;28;104313;-52
2021/10/03 00:36:38;;;;;;;6.10;4.35;;;;;;;17.01;59.40;102109.78;5008126;28;102166;-52
2021/10/03 00:39:04;;;;;;;4.75;3.45;;;;;;;17.00;59.98;102102.63;5017726;28;103863;-53
2021/10/03 00:41:32;;;;;;;5.13;3.55;;;;;;;17.00;59.52;102097.13;5007277;28;102116;-52
2021/10/03 00:43:59;;;;;;;5.75;4.03;;;;;;;17.01;59.74;102109.78;5011198;28;103932;-52
2021/10/03 00:46:26;;;;;;;4.88;3.55;;;;;;;16.99;60.01;102101.81;5002824;28;102034;-53
2021/10/03 00:48:53;;;;;;;5.75;4.15;;;;;;;17.01;59.91;102098.78;5002517;28;102584;-53
2021/10/03 00:51:19;;;;;;;3.97;3.53;;;;;;;17.00;59.55;102097.97;5005228;28;102273;-52
2021/10/03 00:53:47;;;;;;;6.32;3.72;;;;;;;17.00;59.55;102102.63;5008606;28;103941;-52
2021/10/03 00:56:15;;;;;;;4.85;3.10;;;;;;;17.00;59.63;102103.47;5009719;28;102262;-53
2021/10/03 00:58:43;;;;;;;4.90;3.73;;;;;;;17.00;59.48;102097.97;5012572;28;102193;-53
2021/10/03 01:01:11;;;;;;;4.55;3.50;;;;;;;17.00;59.41;102108.97;5008620;28;102165;-53
2021/10/03 01:03:37;;;;;;;5.75;3.45;;;;;;;16.99;59.81;102110.06;5013019;28;104031;-53
2021/10/03 01:06:06;;;;;;;5.57;3.50;;;;;;;16.99;59.92;102107.31;5015322;28;102058;-53
2021/10/03 01:08:33;;;;;;;5.05;3.67;;;;;;;17.00;59.82;102105.38;4996406;28;102265;-52
2021/10/03 01:11:02;;;;;;;4.60;3.80;;;;;;;17.00;59.91;102102.63;5009367;28;102549;-52
2021/10/03 01:13:32;;;;;;;4.40;3.55;;;;;;;17.01;59.68;102104.28;5013223;28;103855;-52
2021/10/03 01:15:59;;;;;;;4.53;3.40;;;;;;;17.00;59.80;102103.47;5004500;28;102146;-52
2021/10/03 01:18:26;;;;;;;4.28;3.50;;;;;;;17.00;60.12;102108.13;5013280;28;102874;-52
2021/10/03 01:20:52;;;;;;;4.50;3.40;;;;;;;17.00;60.13;102102.63;5012072;28;102205;-52
2021/10/03 01:23:21;;;;;;;5.25;3.88;;;;;;;17.00;59.63;102099.88;5006656;28;104231;-53
2021/10/03 01:25:49;;;;;;;5.80;3.50;;;;;;;16.98;60.19;102100.16;5007039;28;102092;-52
2021/10/03 01:28:18;;;;;;;5.20;3.55;;;;;;;16.99;59.99;102096.31;5009255;28;102700;-53
2021/10/03 01:30:47;;;;;;;5.43;3.95;;;;;;;17.00;59.83;102097.13;5000128;28;102198;-53
2021/10/03 01:33:15;;;;;;;5.43;3.53;;;;;;;16.99;59.47;102101.81;4987915;28;104030;-53
2021/10/03 01:35:42;;;;;;;4.10;3.40;;;;;;;16.99;60.19;102101.81;4992937;28;102199;-52
2021/10/03 01:38:11;;;;;;;5.18;3.92;;;;;;;17.00;59.82;102095.22;4989052;28;102524;-52
2021/10/03 01:40:39;;;;;;;5.38;4.03;;;;;;;16.99;59.57;102106.50;5000348;28;103287;-53
2021/10/03 01:43:06;;;;;;;3.95;3.45;;;;;;;17.00;60.00;102108.97;4994443;28;103947;-53
2021/10/03 01:45:33;;;;;;;3.63;3.30;;;;;;;17.00;60.15;102110.88;4993779;28;102269;-53
2021/10/03 01:48:05;;;;;;;3.90;3.50;;;;;;;17.00;59.81;102108.97;4985646;28;102190;-52
2021/10/03 01:50:35;;;;;;;4.55;3.60;;;;;;;17.00;60.23;102111.72;4988814;28;102160;-53
2021/10/03 01:53:02;;;;;;;5.22;3.67;;;;;;;17.00;60.27;102111.72;4989606;28;103863;-52
2021/10/03 01:55:29;;;;;;;6.45;3.78;;;;;;;17.01;59.74;102112.53;4996944;28;102068;-52
2021/10/03 01:57:56;;;;;;;5.30;3.85;;;;;;;17.00;59.62;102113.63;4992332;28;102163;-52
2021/10/03 02:00:23;;;;;;;5.22;3.90;;;;;;;17.00;60.17;102106.22;4990834;28;102411;-53
2021/10/03 02:02:58;;;;;;;4.40;3.47;;;;;;;17.00;59.91;102111.72;4993253;28;103916;-53
2021/10/03 02:05:26;;;;;;;4.93;4.10;;;;;;;17.01;59.81;102112.53;4994982;28;102102;-53
2021/10/03 02:07:53;;;;;;;5.18;4.03;;;;;;;17.00;60.22;102105.38;4991331;28;102062;-54
2021/10/03 02:10:20;;;;;;;5.50;3.90;;;;;;;17.00;59.80;102108.97;4997195;28;102227;-53
2021/10/03 02:12:51;;;;;;;5.50;3.80;;;;;;;17.00;60.23;102114.47;4992165;28;107821;-53
2021/10/03 02:15:21;;;;;;;4.50;3.47;;;;;;;17.00;59.83;102103.47;4986431;28;103291;-52
2021/10/03 02:17:47;;;;;;;3.40;2.97;;;;;;;17.00;59.81;102102.63;4988021;28;102005;-52
2021/10/03 02:20:15;;;;;;;5.75;3.88;;;;;;;17.00;59.67;102099.88;5000484;28;102247;-53
2021/10/03 02:22:42;;;;;;;5.00;3.53;;;;;;;17.00;60.17;102099.88;4989624;28;103607;-52
2021/10/03 02:25:09;;;;;;;3.88;3.35;;;;;;;16.99;60.38;102101.81;4992431;28;102537;-52
2021/10/03 02:27:37;;;;;;;3.80;3.28;;;;;;;17.00;60.35;102097.97;4988273;28;102516;-53
2021/10/03 02:30:06;;;;;;;5.32;4.03;;;;;;;17.00;60.22;102097.13;4998555;28;102381;-52
2021/10/03 02:32:35;;;;;;;4.65;3.72;;;;;;;17.00;60.25;102089.72;5011319;28;104089;-52
2021/10/03 02:35:02;;;;;;;5.03;3.53;;;;;;;17.00;60.08;102100.72;5011769;27;102573;-52
2021/10/03 02:37:29;;;;;;;4.27;3.43;;;;;;;16.99;60.13;102095.50;5015201;28;102224;-52
2021/10/03 02:39:57;;;;;;;4.53;3.90;;;;;;;17.00;59.98;102099.88;5010084;28;102182;-52
2021/10/03 02:42:24;;;;;;;4.63;3.50;;;;;;;16.99;60.07;102090.00;5009201;28;106359;-52
2021/10/03 02:44:50;;;;;;;5.57;3.92;;;;;;;17.00;59.87;102099.88;5016333;28;102426;-52
2021/10/03 02:47:18;;;;;;;5.28;3.63;;;;;;;16.99;60.10;102087.25;5008111;28;102119;-52
2021/10/03 02:49:46;;;;;;;4.45;3.60;;;;;;;16.99;59.82;102090.81;5003077;28;102314;-52
2021/10/03 02:52:13;;;;;;;4.27;3.83;;;;;;;16.98;60.27;102100.16;5002176;28;104019;-53
2021/10/03 02:54:40;;;;;;;4.07;3.28;;;;;;;16.99;60.16;102095.50;5007602;28;102379;-52
2021/10/03 02:57:08;;;;;;;4.97;3.53;;;;;;;16.99;59.81;102093.56;4999597;28;102119;-54
2021/10/03 02:59:35;;;;;;;5.10;4.07;;;;;;;16.98;59.93;102091.91;5010565;28;102300;-52
2021/10/03 03:02:02;;;;;;;5.25;3.75;;;;;;;16.99;60.33;102095.50;5009097;28;103910;-52
2021/10/03 03:04:29;;;;;;;6.43;4.10;;;;;;;16.98;60.08;102094.66;5015054;28;102175;-52
2021/10/03 03:06:57;;;;;;;4.75;3.85;;;;;;;16.98;60.04;102094.66;5012123;27;102563;-52
2021/10/03 03:09:24;;;;;;;5.13;3.60;;;;;;;16.98;60.19;102091.09;5005130;28;102217;-52
2021/10/03 03:11:50;;;;;;;5.88;4.32;;;;;;;16.98;60.34;102100.16;5012731;27;103920;-53
2021/10/03 03:14:18;;;;;;;4.82;3.63;;;;;;;16.97;60.46;102098.50;5012485;27;101959;-52
2021/10/03 03:16:47;;;;;;;4.78;3.72;;;;;;;16.98;60.13;102105.66;5016519;28;102436;-52
2021/10/03 03:19:14;;;;;;;5.72;3.80;;;;;;;16.98;60.22;102100.16;5017130;28;102484;-52
2021/10/03 03:21:41;;;;;;;4.95;4.00;;;;;;;16.97;60.05;102098.50;5012310;28;103926;-53
2021/10/03 03:24:10;;;;;;;5.03;4.10;;;;;;;16.97;60.27;102098.50;4999876;28;102377;-53
2021/10/03 03:26:37;;;;;;;5.03;3.90;;;;;;;16.98;59.94;102100.16;5009725;28;102219;-52
2021/10/03 03:29:05;;;;;;;4.95;4.05;;;;;;;16.98;60.04;102094.66;5013920;27;102224;-52
2021/10/03 03:31:32;;;;;;;5.07;4.20;;;;;;;16.98;59.91;102094.66;5008745;28;104097;-52
2021/10/03 03:33:59;;;;;;;5.97;4.00;;;;;;;16.99;60.10;102095.50;5015553;27;102067;-52
2021/10/03 03:36:25;;;;;;;5.38;4.38;;;;;;;16.98;60.38;102094.66;5014292;28;102186;-52
2021/10/03 03:38:52;;;;;;;5.65;3.70;;;;;;;16.98;60.37;102093.84;5002858;28;102720;-53
2021/10/03 03:41:20;;;;;;;4.35;3.72;;;;;;;16.96;60.35;102091.38;5004994;28;103863;-53
2021/10/03 03:43:47;;;;;;;4.33;3.50;;;;;;;16.98;60.53;102096.59;5005860;28;102540;-52
2021/10/03 03:46:13;;;;;;;4.28;3.85;;;;;;;16.97;60.25;102106.75;5008480;28;102702;-52
2021/10/03 03:48:40;;;;;;;5.40;4.05;;;;;;;16.97;60.41;102109.50;5012109;28;102173;-52
2021/10/03 03:51:06;;;;;;;5.55;4.22;;;;;;;16.98;60.48;102102.91;5012174;28;103947;-52
2021/10/03 03:53:33;;;;;;;5.20;4.38;;;;;;;16.96;60.16;102094.13;5013157;28;102607;-52
2021/10/03 03:56:00;;;;;;;5.07;3.88;;;;;;;16.97;60.54;102097.69;5014119;27;102053;-52
2021/10/03 03:58:27;;;;;;;4.53;3.75;;;;;;;16.97;60.24;102100.44;5011699;28;102414;-52
2021/10/03 04:00:54;;;;;;;6.78;4.22;;;;;;;16.98;60.15;102104.84;5011372;28;103795;-52
2021/10/03 04:03:21;;;;;;;5.20;3.95;;;;;;;16.97;60.54;102106.75;5007681;28;102524;-52
2021/10/03 04:05:47;;;;;;;6.10;4.18;;;;;;;16.96;60.18;102102.38;5014562;28;102603;-52
2021/10/03 04:08:14;;;;;;;5.30;3.75;;;;;;;16.97;60.60;102106.75;5007418;28;102175;-53
2021/10/03 04:10:40;;;;;;;8.18;4.10;;;;;;;16.97;60.44;102104.00;5005231;28;104018;-52
2021/10/03 04:13:07;;;;;;;5.25;4.00;;;;;;;16.97;60.52;102105.94;5002156;28;102137;-52
2021/10/03 04:15:36;;;;;;;5.15;3.80;;;;;;;16.97;60.09;102104.00;5007318;28;103215;-52
2021/10/03 04:18:02;;;;;;;5.70;3.97;;;;;;;16.96;60.53;102113.38;5009280;28;102520;-53
2021/10/03 04:20:29;;;;;;;5.68;3.95;;;;;;;16.96;60.57;102096.88;5008213;28;104048;-52
2021/10/03 04:22:56;;;;;;;4.47;3.70;;;;;;;16.97;60.01;102108.69;5007306;28;102274;-53
2021/10/03 04:25:22;;;;;;;4.65;3.78;;;;;;;16.97;60.00;102109.50;5003271;28;103076;-52
2021/10/03 04:27:49;;;;;;;4.40;3.80;;;;;;;16.96;60.20;102105.13;5002293;28;102248;-52
2021/10/03 04:30:15;;;;;;;6.07;3.92;;;;;;;16.96;60.26;102110.63;4996377;28;103968;-52
2021/10/03 04:32:43;;;;;;;5.55;4.43;;;;;;;16.96;60.46;102113.38;5000903;28;102363;-53
2021/10/03 04:35:10;;;;;;;4.25;3.65;;;;;;;16.97;60.35;102111.44;5007142;28;102235;-52
2021/10/03 04:37:36;;;;;;;6.53;4.10;;;;;;;16.96;60.47;102112.56;5004004;28;103024;-53
2021/10/03 04:40:06;;;;;;;4.63;3.73;;;;;;;16.97;60.49;102114.19;5011190;28;103935;-52
2021/10/03 04:42:33;;;;;;;5.25;3.85;;;;;;;16.97;60.48;102120.50;5011052;28;102500;-52
2021/10/03 04:45:00;;;;;;;4.38;3.45;;;;;;;16.97;60.17;102123.25;5006227;28;102607;-53
2021/10/03 04:47:26;;;;;;;5.03;4.00;;;;;;;16.95;60.04;102125.50;5012679;28;102312;-53
2021/10/03 04:49:56;;;;;;;4.82;3.78;;;;;;;16.95;60.59;102122.75;5002385;28;103706;-53
2021/10/03 04:52:27;;;;;;;5.50;4.13;;;;;;;16.96;60.40;102121.63;4997379;28;102711;-53
2021/10/03 04:54:54;;;;;;;5.80;3.83;;;;;;;16.96;60.49;102129.88;5008771;28;102066;-53
2021/10/03 04:57:20;;;;;;;5.53;4.13;;;;;;;16.96;60.21;102134.56;5013089;28;102225;-53
2021/10/03 04:59:47;;;;;;;5.40;4.13;;;;;;;16.96;60.12;102129.88;4996670;28;103871;-53
2021/10/03 05:02:13;;;;;;;6.50;4.28;;;;;;;16.96;60.05;102129.88;4998364;28;104845;-53
2021/10/03 05:04:40;;;;;;;4.43;3.92;;;;;;;16.96;60.15;102129.06;5000228;28;102293;-53
2021/10/03 05:07:07;;;;;;;5.10;4.10;;;;;;;16.96;60.14;102129.88;5012103;28;102210;-52
2021/10/03 05:09:34;;;;;;;4.97;4.05;;;;;;;16.95;60.75;102136.50;5014205;28;103846;-52
2021/10/03 05:12:03;;;;;;;4.32;3.65;;;;;;;16.96;60.51;102140.88;5008412;28;102036;-53
2021/10/03 05:14:29;;;;;;;5.50;4.38;;;;;;;16.95;60.19;102139.25;5016104;27;102676;-52
2021/10/03 05:16:56;;;;;;;4.65;3.88;;;;;;;16.95;60.50;102139.25;5015789;28;102273;-52
2021/10/03 05:19:22;;;;;;;6.38;4.00;;;;;;;16.95;60.65;102133.75;5015253;28;103955;-53
2021/10/03 05:21:49;;;;;;;6.05;4.50;;;;;;;16.96;60.24;102140.88;5010159;28;102280;-53
2021/10/03 05:24:17;;;;;;;5.18;4.00;;;;;;;16.96;60.16;102145.56;5007041;28;102189;-53
2021/10/03 05:26:43;;;;;;;5.68;3.75;;;;;;;16.96;60.23;102140.88;5006501;28;102098;-52
2021/10/03 05:29:10;;;;;;;4.65;3.88;;;;;;;16.95;60.65;102150.25;5007909;28;102763;-53
2021/10/03 05:31:37;;;;;;;6.22;4.32;;;;;;;16.95;60.78;102150.25;5007881;28;102153;-53
2021/10/03 05:34:03;;;;;;;5.68;4.30;;;;;;;16.95;60.13;102150.25;5008236;28;102219;-52
2021/10/03 05:36:30;;;;;;;6.60;4.10;;;;;;;16.94;60.62;102148.56;5007081;28;102280;-53
2021/10/03 05:38:59;;;;;;;5.22;4.00;;;;;;;16.95;60.80;102147.50;5004428;27;104054;-52
2021/10/03 05:41:28;;;;;;;5.05;3.97;;;;;;;16.95;60.71;102143.88;5002351;28;102194;-53
2021/10/03 05:43:56;;;;;;;6.75;4.65;;;;;;;16.96;60.18;102162.06;5004931;28;102461;-53
2021/10/03 05:46:22;;;;;;;5.47;4.20;;;;;;;16.95;60.58;102154.88;5003974;28;102555;-52
2021/10/03 05:48:49;;;;;;;6.13;4.45;;;;;;;16.95;60.75;102150.25;5003690;28;104321;-53
2021/10/03 05:51:15;;;;;;;5.32;4.57;;;;;;;16.95;60.18;102146.63;5011352;28;105503;-53
2021/10/03 05:53:42;;;;;;;6.28;4.35;;;;;;;16.95;60.81;102158.50;5006308;28;102602;-53
2021/10/03 05:56:09;;;;;;;5.18;4.20;;;;;;;16.94;60.75;102159.56;5001529;28;102955;-52
2021/10/03 05:58:37;;;;;;;6.03;4.30;;;;;;;16.95;60.29;102168.63;5008867;28;103906;-52
2021/10/03 06:01:04;;;;;;;5.68;3.97;;;;;;;16.94;60.41;102165.06;5012131;28;102367;-52
2021/10/03 06:03:30;;;;;;;4.93;4.00;;;;;;;16.95;60.68;102166.75;5012286;28;102140;-53
2021/10/03 06:05:57;;;;;;;5.93;4.70;;;;;;;16.95;60.64;102172.25;5010380;28;102162;-52
2021/10/03 06:08:24;;;;;;;5.07;4.05;;;;;;;16.96;60.61;102184.06;5004846;28;103832;-53
2021/10/03 06:10:53;;;;;;;5.70;4.35;;;;;;;16.94;60.31;102186.25;5004483;28;102216;-52
2021/10/03 06:13:19;;;;;;;5.50;4.05;;;;;;;16.94;60.75;102187.06;5008793;28;102297;-53
2021/10/03 06:15:47;;;;;;;5.85;4.25;;;;;;;16.95;60.28;102194.25;5003450;28;102131;-53
2021/10/03 06:18:15;;;;;;;6.90;4.30;;;;;;;16.95;60.54;102188.75;5005167;27;103849;-53
2021/10/03 06:20:42;;;;;;;5.75;4.50;;;;;;;16.95;60.65;102185.13;4999528;28;102063;-52
2021/10/03 06:23:09;;;;;;;6.00;4.57;;;;;;;16.95;60.40;102194.25;5007445;28;102391;-52
2021/10/03 06:25:37;;;;;;;5.45;4.50;;;;;;;16.96;60.35;102184.88;5000000;27;103289;-52
2021/10/03 06:28:03;;;;;;;5.85;4.25;;;;;;;16.96;60.68;102189.56;5003936;28;104076;-53
2021/10/03 06:30:31;;;;;;;7.40;4.75;;;;;;;16.95;60.47;102199.75;5000788;28;102200;-53
2021/10/03 06:33:00;;;;;;;5.85;4.47;;;;;;;16.95;60.55;102194.25;5010373;27;103627;-53
2021/10/03 06:35:28;;;;;;;6.18;4.53;;;;;;;16.96;60.41;102200.56;5001363;28;105697;-53
2021/10/03 06:37:54;;;;;;;6.50;4.47;;;;;;;16.96;60.20;102195.88;5005079;28;103901;-53
2021/10/03 06:40:21;;;;;;;6.72;4.82;;;;;;;16.96;60.66;102195.88;5014543;28;102332;-52
2021/10/03 06:42:47;;;;;;;5.88;4.75;;;;;;;16.97;60.82;102202.19;5008933;28;102546;-52
2021/10/03 06:45:14;;;;;;;6.38;4.60;;;;;;;16.96;60.40;102198.63;5005948;28;103318;-53
2021/10/03 06:47:41;;;;;;;5.43;4.70;;;;;;;16.97;60.46;102197.53;5014959;28;103942;-52
2021/10/03 06:50:11;;;;;;;5.57;4.53;;;;;;;16.98;60.54;102206.59;5008695;28;102731;-53
2021/10/03 06:52:38;;;;;;;6.53;4.68;;;;;;;16.97;60.39;102205.78;5006509;28;102802;-52
2021/10/03 06:55:06;;;;;;;6.18;4.47;;;;;;;16.98;60.79;102199.16;5012925;28;102607;-52
2021/10/03 06:57:34;;;;;;;6.93;4.75;;;;;;;16.98;60.32;102199.16;5004783;28;103779;-52
2021/10/03 07:00:02;;;;;;;4.97;4.25;;;;;;;16.99;60.50;102198.06;5013913;28;102169;-52
2021/10/03 07:02:30;;;;;;;6.15;4.70;;;;;;;17.00;60.74;102196.16;5012033;27;102439;-52
2021/10/03 07:04:56;;;;;;;7.35;4.70;;;;;;;16.99;60.30;102195.31;5010580;28;102225;-53
2021/10/03 07:07:24;;;;;;;5.55;4.32;;;;;;;17.00;60.56;102202.47;5003029;28;103748;-52
2021/10/03 07:09:51;;;;;;;4.93;4.35;;;;;;;17.02;60.32;102197.53;5008791;28;102400;-52
2021/10/03 07:12:18;;;;;;;5.97;4.47;;;;;;;17.02;60.52;102200.28;5009057;28;102232;-52
2021/10/03 07:14:45;;;;;;;5.72;4.40;;;;;;;17.03;60.42;102192.84;5013505;28;102338;-52
2021/10/03 07:17:13;;;;;;;5.20;4.07;;;;;;;17.03;60.47;102195.59;5011115;28;103974;-53
2021/10/03 07:19:40;;;;;;;5.85;4.80;;;;;;;17.05;60.71;102193.38;5005949;28;103025;-52
2021/10/03 07:22:08;;;;;;;6.90;4.75;;;;;;;17.04;60.54;102191.72;5010700;28;102009;-53
2021/10/03 07:24:37;;;;;;;;;;;;;;;17.04;60.26;102198.06;5011907;28;102155;-52
2021/10/03 07:27:05;;;;;;;5.60;4.45;;;;;;;17.04;60.78;102192.56;5007030;27;104195;-53
2021/10/03 07:29:32;;;;;;;6.90;4.55;;;;;;;17.05;60.56;102194.19;5009920;28;102540;-52
2021/10/03 07:31:59;;;;;;;7.13;4.38;;;;;;;17.05;60.52;102194.19;5006620;28;102374;-52
2021/10/03 07:34:28;;;;;;;6.80;4.85;;;;;;;17.07;60.65;102193.09;5012838;28;102602;-53
2021/10/03 07:36:55;;;;;;;10.23;5.68;;;;;;;17.08;60.22;102198.31;5015394;27;103925;-52
2021/10/03 07:39:21;;;;;;;5.32;3.97;;;;;;;17.09;60.65;102190.88;5010415;28;102858;-53
2021/10/03 07:41:51;;;;;;;5.32;4.22;;;;;;;17.09;60.33;102188.13;5007391;28;102274;-52
2021/10/03 07:44:18;;;;;;;5.50;4.57;;;;;;;17.10;60.68;102192.56;5001592;28;103497;-52
2021/10/03 07:46:45;;;;;;;12.05;5.10;;;;;;;17.10;60.34;102181.56;4998088;28;103893;-52
2021/10/03 07:49:13;;;;;;;18.13;5.95;;;;;;;17.12;60.22;102193.91;4997588;28;102416;-52
2021/10/03 07:51:39;;;;;;;14.38;5.22;;;;;;;17.12;60.40;102187.59;5006958;28;102397;-51
2021/10/03 07:54:06;;;;;;;11.65;4.72;;;;;;;17.12;60.53;102187.59;5008505;28;102815;-51
2021/10/03 07:56:32;;;;;;;8.75;4.60;;;;;;;17.13;60.69;102189.22;5000340;28;103984;-51
2021/10/03 07:59:00;;;;;;;10.90;5.03;;;;;;;17.12;60.46;102187.59;5005892;28;102424;-52
2021/10/03 08:01:27;;;;;;;12.95;4.43;;;;;;;17.10;60.18;102193.38;4998415;28;102454;-51
2021/10/03 08:03:55;;;;;;;12.10;5.10;;;;;;;17.12;60.52;102182.06;5003651;28;102545;-51
2021/10/03 08:06:22;;;;;;;11.60;4.80;;;;;;;17.12;60.37;102193.09;5006374;28;103899;-52
2021/10/03 08:08:48;;;;;;;8.30;4.50;;;;;;;17.12;59.88;102195.84;5001460;27;102309;-52
2021/10/03 08:11:17;;;;;;;8.73;4.43;;;;;;;17.10;59.65;102190.63;5008029;28;104091;-52
2021/10/03 08:13:43;;;;;;;10.38;4.72;;;;;;;17.10;60.18;102192.56;5008685;28;103245;-52
2021/10/03 08:16:12;;;;;;;7.60;3.90;;;;;;;17.09;60.01;102188.13;5000844;28;103946;-52
2021/10/03 08:18:39;;;;;;;9.48;4.45;;;;;;;17.08;59.58;102195.56;5004306;28;102235;-52
2021/10/03 08:21:05;;;;;;;11.93;4.05;;;;;;;17.08;59.33;102203.00;5012000;28;102413;-52
2021/10/03 08:23:32;;;;;;;6.47;4.15;;;;;;;17.08;58.99;102203.00;5008959;28;102264;-52
2021/10/03 08:25:59;;;;;;;6.80;3.80;;;;;;;17.07;58.93;102191.19;5010616;27;103935;-53
2021/10/03 08:28:26;;;;;;;8.18;3.88;;;;;;;17.07;58.74;102190.34;5010844;28;102077;-53
2021/10/03 08:30:53;;;;;;;10.23;3.72;;;;;;;17.07;58.55;102195.84;5002599;28;102440;-53
2021/10/03 08:33:21;;;;;;;10.30;4.40;;;;;;;17.06;58.72;102192.28;5010234;28;102353;-53
2021/10/03 08:35:48;;;;;;;8.15;4.43;;;;;;;17.05;58.17;102185.94;5008283;28;103950;-53
2021/10/03 08:38:15;;;;;;;8.55;4.00;;;;;;;17.06;58.32;102195.03;5007171;28;102367;-54
2021/10/03 08:40:41;;;;;;;7.53;4.10;;;;;;;17.05;58.30;102188.69;5003510;28;102282;-53
2021/10/03 08:43:08;;;;;;;10.48;3.92;;;;;;;17.05;58.52;102183.19;5003908;28;102231;-53
2021/10/03 08:45:39;;;;;;;6.63;3.65;;;;;;;17.07;58.32;102184.84;5004478;28;103645;-53
2021/10/03 08:48:08;;;;;;;8.07;4.07;;;;;;;17.05;58.34;102185.94;5008354;28;102152;-53
2021/10/03 08:50:36;;;;;;;6.20;3.70;;;;;;;17.07;57.66;102179.34;5012553;28;102249;-52
2021/10/03 08:53:02;;;;;;;8.57;4.03;;;;;;;17.08;57.89;102178.25;5004574;28;102351;-52
2021/10/03 08:55:29;;;;;;;8.07;4.03;;;;;;;17.08;58.13;102183.75;5008664;28;103938;-52
2021/10/03 08:57:56;;;;;;;7.15;3.78;;;;;;;17.10;58.29;102176.06;5003741;28;102697;-52
2021/10/03 09:00:24;;;;;;;7.13;4.20;;;;;;;17.09;57.69;102177.13;5002837;28;102615;-52
2021/10/03 09:03:00;;;;;;;6.50;4.37;;;;;;;17.10;57.47;102176.06;5011399;28;102472;-53
2021/10/03 09:05:29;;;;;;;8.38;4.65;;;;;;;17.10;57.83;102178.81;5002546;28;103926;-52
2021/10/03 09:08:05;;;;;;;4.80;3.97;;;;;;;17.10;57.89;102173.31;5004807;28;102684;-52
2021/10/03 09:11:03;;;;;;;8.15;4.00;;;;;;;17.11;58.02;102174.94;5003092;28;102187;-52
2021/10/03 09:13:43;;;;;;;6.07;4.13;;;;;;;17.12;57.25;102176.56;4966961;28;102472;-52
2021/10/03 09:16:16;;;;;;;6.93;4.00;;;;;;;17.11;57.58;102170.25;4999639;28;104321;-52
2021/10/03 09:18:45;;;;;;;5.55;3.90;;;;;;;17.11;57.74;102180.44;5014571;28;102413;-52
2021/10/03 09:21:14;;;;;;;10.77;3.33;;;;;;;17.06;55.55;102178.53;4999107;28;102370;-52
2021/10/03 09:23:42;;;;;;;6.75;3.63;;;;;;;17.08;56.41;102181.00;5004245;28;102210;-52
2021/10/03 09:26:13;;;;;;;6.03;4.18;;;;;;;17.08;57.07;102175.50;4998964;28;103973;-52
2021/10/03 09:28:39;;;;;;;7.97;3.78;;;;;;;17.09;57.41;102171.63;5008523;28;102742;-52
2021/10/03 09:31:09;;;;;;;6.30;4.13;;;;;;;17.09;57.12;102169.69;4999250;28;102348;-52
2021/10/03 09:33:41;;;;;;;7.90;4.13;;;;;;;17.09;57.37;102180.69;5000787;28;102553;-52
2021/10/03 09:36:09;;;;;;;6.88;5.15;;;;;;;17.09;57.37;102177.13;5001975;28;103858;-52
2021/10/03 09:38:45;;;;;;;9.45;4.13;;;;;;;17.10;57.31;102170.56;4999661;28;102270;-52
2021/10/03 09:41:13;;;;;;;8.45;3.78;;;;;;;17.10;57.05;102170.56;5003733;28;102522;-52
2021/10/03 09:43:42;;;;;;;11.70;4.60;;;;;;;17.08;56.81;102176.31;4999273;27;102450;-52
2021/10/03 09:46:10;;;;;;;9.85;4.32;;;;;;;17.07;56.57;102163.66;5004856;28;104107;-52
2021/10/03 09:48:47;;;;;;;9.35;3.90;;;;;;;17.09;56.49;102161.44;5002965;28;102319;-52
2021/10/03 09:51:15;;;;;;;5.50;3.70;;;;;;;17.09;56.84;102157.88;5010082;28;102060;-52
2021/10/03 09:53:44;;;;;;;8.32;3.67;;;;;;;17.09;56.84;102158.69;5005997;28;103176;-52
2021/10/03 09:56:12;;;;;;;13.18;4.53;;;;;;;17.09;56.60;102161.44;5009211;28;103872;-52
2021/10/03 09:58:40;;;;;;;9.93;4.13;;;;;;;17.10;56.19;102151.28;5009792;28;102631;-52
2021/10/03 10:01:07;;;;;;;9.57;3.85;;;;;;;17.11;56.49;102158.44;5008696;28;102885;-52
2021/10/03 10:03:36;;;;;;;5.68;3.63;;;;;;;17.12;56.14;102151.81;5018169;27;102955;-53
2021/10/03 10:06:02;;;;;;;7.30;3.67;;;;;;;17.13;56.30;102156.22;5005437;28;103940;-52
2021/10/03 10:08:29;;;;;;;6.00;3.75;;;;;;;17.13;56.83;102167.22;5010530;28;102136;-52
2021/10/03 10:11:04;;;;;;;8.65;4.20;;;;;;;17.14;56.52;102152.38;5016109;28;102174;-52
2021/10/03 10:13:34;;;;;;;7.30;3.70;;;;;;;17.14;56.35;102147.69;5016175;28;102088;-52
2021/10/03 10:16:19;;;;;;;;;;;;;;;17.15;56.75;102151.25;5001250;28;104137;-52
2021/10/03 10:18:45;;;;;;;6.13;3.80;;;;;;;17.15;56.58;102154.00;5017374;28;102711;-52
2021/10/03 10:21:23;;;;;;;5.95;3.42;;;;;;;17.15;56.54;102149.34;5014649;28;102168;-52
2021/10/03 10:23:50;;;;;;;5.15;3.60;;;;;;;17.15;56.52;102143.00;5011470;28;102045;-52
2021/10/03 10:26:38;;;;;;;8.93;3.72;;;;;;;17.16;56.32;102144.66;5013050;28;103930;-52
2021/10/03 10:29:42;;;;;;;11.60;4.03;;;;;;;17.16;56.83;102139.16;5012889;28;102162;-52
2021/10/03 10:32:09;;;;;;;5.05;3.28;;;;;;;17.16;56.57;102139.97;5007132;27;103029;-53
2021/10/03 10:35:18;;;;;;;5.80;3.58;;;;;;;17.17;56.84;102140.81;5009167;28;102598;-52
2021/10/03 10:38:13;;;;;;;5.68;3.70;;;;;;;17.17;56.32;102135.31;5003765;28;104046;-52
2021/10/03 10:40:40;;;;;;;5.15;3.35;;;;;;;17.16;56.18;102139.16;5006955;28;102409;-52
2021/10/03 10:43:46;;;;;;;4.82;3.47;;;;;;;17.17;56.31;102129.81;5015533;27;102459;-52
2021/10/03 10:46:48;;;;;;;7.80;3.67;;;;;;;17.18;56.24;102131.44;5003640;28;102108;-53
2021/10/03 10:49:30;;;;;;;6.38;3.65;;;;;;;17.18;56.76;102131.44;5009592;28;104098;-52
2021/10/03 10:52:29;;;;;;;5.07;3.28;;;;;;;17.18;56.47;102126.75;5014984;27;102285;-52
2021/10/03 10:55:24;;;;;;;4.30;3.42;;;;;;;17.17;56.41;102130.63;5006079;28;102751;-52
2021/10/03 10:58:16;;;;;;;6.50;3.35;;;;;;;17.18;56.12;102126.75;5005179;28;102156;-52
2021/10/03 11:01:05;;;;;;;3.83;3.42;;;;;;;17.18;56.28;102120.44;5007687;28;104179;-52
2021/10/03 11:04:04;;;;;;;5.70;3.15;;;;;;;17.19;56.37;102122.09;5006673;28;102336;-52
2021/10/03 11:07:03;;;;;;;4.35;3.38;;;;;;;17.19;56.18;102122.09;5011710;27;102363;-52
2021/10/03 11:09:59;;;;;;;4.10;3.30;;;;;;;17.18;56.16;102124.00;5015721;28;102111;-53
2021/10/03 11:12:33;;;;;;;5.18;3.20;;;;;;;17.19;56.76;102122.91;5005770;28;102944;-52
2021/10/03 11:15:28;;;;;;;5.05;3.10;;;;;;;17.19;56.28;102117.41;5008759;28;101968;-52
2021/10/03 11:18:04;;;;;;;4.47;3.20;;;;;;;17.18;56.48;102115.75;5012332;28;103541;-52
2021/10/03 11:20:32;;;;;;;6.75;3.60;;;;;;;17.19;56.60;102122.09;5010296;28;102532;-52
2021/10/03 11:22:58;;;;;;;5.87;3.77;;;;;;;17.19;56.67;102116.59;5000358;28;103874;-52
2021/10/03 11:25:28;;;;;;;7.30;3.40;;;;;;;17.20;56.42;102118.22;5007429;28;102102;-52
2021/10/03 11:27:55;;;;;;;3.65;3.25;;;;;;;17.20;56.46;102115.47;5012107;28;102143;-52